createdAt,value
2017-12-20T00:01:04.992Z,4.90
2017-12-20T00:03:33.253Z,4.90
2017-12-20T00:06:01.577Z,4.80
2017-12-20T00:08:29.824Z,4.80
2017-12-20T00:10:58.085Z,4.80
2017-12-20T00:13:26.358Z,4.80
2017-12-20T00:15:54.628Z,4.80
2017-12-20T00:18:22.922Z,4.80
2017-12-20T00:20:51.166Z,4.80
2017-12-20T00:23:19.457Z,4.90
2017-12-20T00:25:47.759Z,4.90
2017-12-20T00:28:15.976Z,4.90
2017-12-20T00:30:45.011Z,4.80
2017-12-20T00:33:13.280Z,4.80
2017-12-20T00:35:42.069Z,4.90
2017-12-20T00:38:10.869Z,4.90
2017-12-20T00:40:38.904Z,4.80
2017-12-20T00:43:07.932Z,4.90
2017-12-20T00:45:36.186Z,4.90
2017-12-20T00:48:04.453Z,4.90
2017-12-20T00:50:33.483Z,4.90
2017-12-20T00:53:01.760Z,4.90
2017-12-20T00:55:30.044Z,5.00
2017-12-20T00:57:59.063Z,4.90
2017-12-20T01:00:27.358Z,4.90
2017-12-20T01:02:55.607Z,5.00
2017-12-20T01:05:23.877Z,4.90
2017-12-20T01:07:52.894Z,5.00
2017-12-20T01:10:21.206Z,5.00
2017-12-20T01:12:50.216Z,4.90
2017-12-20T01:15:18.488Z,4.90
2017-12-20T01:17:46.753Z,4.90
2017-12-20T01:20:15.021Z,4.90
2017-12-20T01:22:43.275Z,4.90
2017-12-20T01:25:11.533Z,5.00
2017-12-20T01:27:39.772Z,5.00
2017-12-20T01:30:08.055Z,5.00
2017-12-20T01:32:36.297Z,4.90
2017-12-20T01:35:05.335Z,4.90
2017-12-20T01:37:33.614Z,4.90
2017-12-20T01:40:02.557Z,4.90
2017-12-20T01:42:31.588Z,4.90
2017-12-20T01:44:59.853Z,4.90
2017-12-20T01:47:28.130Z,4.90
2017-12-20T01:49:56.390Z,4.90
2017-12-20T01:52:24.674Z,4.90
2017-12-20T01:54:52.940Z,4.90
2017-12-20T01:57:21.178Z,5.00
2017-12-20T01:59:49.437Z,5.00
2017-12-20T02:02:17.689Z,5.00
2017-12-20T02:04:45.965Z,4.90
2017-12-20T02:07:14.248Z,4.90
2017-12-20T02:09:42.516Z,4.90
2017-12-20T02:12:10.777Z,4.90
2017-12-20T02:14:39.041Z,4.90
2017-12-20T02:17:08.067Z,4.80
2017-12-20T02:19:36.342Z,4.80
2017-12-20T02:22:04.602Z,4.80
2017-12-20T02:24:32.917Z,4.80
2017-12-20T02:27:01.197Z,4.80
2017-12-20T02:29:29.522Z,4.70
2017-12-20T02:31:58.559Z,4.80
2017-12-20T02:34:26.854Z,4.80
2017-12-20T02:36:55.137Z,4.80
2017-12-20T02:39:23.456Z,4.80
2017-12-20T02:41:52.533Z,4.80
2017-12-20T02:44:22.805Z,4.80
2017-12-20T02:46:51.110Z,4.80
2017-12-20T02:49:19.385Z,4.90
2017-12-20T02:51:49.195Z,4.80
2017-12-20T02:54:17.469Z,4.80
2017-12-20T02:56:45.785Z,4.80
2017-12-20T02:59:14.080Z,4.80
2017-12-20T03:01:42.350Z,4.90
2017-12-20T03:04:10.648Z,4.90
2017-12-20T03:06:38.967Z,4.90
2017-12-20T03:09:07.815Z,5.00
2017-12-20T03:11:36.068Z,5.00
2017-12-20T03:14:05.093Z,5.00
2017-12-20T03:16:33.374Z,5.00
2017-12-20T03:19:01.660Z,5.00
2017-12-20T03:21:29.931Z,4.90
2017-12-20T03:23:58.193Z,4.90
2017-12-20T03:26:26.485Z,4.90
2017-12-20T03:28:54.745Z,4.90
2017-12-20T03:31:23.937Z,4.90
2017-12-20T03:33:52.198Z,4.90
2017-12-20T03:36:20.482Z,5.00
2017-12-20T03:38:48.744Z,5.00
2017-12-20T03:41:17.025Z,5.00
2017-12-20T03:43:45.296Z,5.10
2017-12-20T03:46:14.818Z,5.10
2017-12-20T03:48:43.077Z,5.00
2017-12-20T03:51:12.121Z,5.20
2017-12-20T03:53:40.396Z,5.20
2017-12-20T03:56:12.245Z,5.10
2017-12-20T03:58:40.554Z,5.10
2017-12-20T04:01:08.824Z,5.10
2017-12-20T04:03:37.081Z,5.10
2017-12-20T04:06:05.354Z,5.00
2017-12-20T04:08:33.623Z,5.00
2017-12-20T04:11:02.201Z,5.00
2017-12-20T04:13:30.460Z,5.10
2017-12-20T04:15:59.488Z,5.10
2017-12-20T04:18:27.773Z,5.10
2017-12-20T04:20:56.059Z,5.00
2017-12-20T04:23:24.312Z,5.10
2017-12-20T04:25:56.462Z,5.10
2017-12-20T04:28:24.736Z,5.10
2017-12-20T04:30:52.994Z,5.10
2017-12-20T04:33:22.017Z,5.10
2017-12-20T04:35:50.279Z,5.10
2017-12-20T04:38:18.534Z,5.20
2017-12-20T04:40:47.560Z,5.10
2017-12-20T04:43:15.810Z,5.10
2017-12-20T04:45:44.078Z,5.20
2017-12-20T04:48:13.090Z,5.20
2017-12-20T04:50:42.113Z,5.20
2017-12-20T04:53:10.391Z,5.20
2017-12-20T04:55:38.654Z,5.10
2017-12-20T04:58:06.918Z,5.20
2017-12-20T05:00:35.196Z,5.20
2017-12-20T05:03:03.446Z,5.20
2017-12-20T05:05:32.503Z,5.20
2017-12-20T05:08:00.762Z,5.20
2017-12-20T05:10:29.042Z,5.20
2017-12-20T05:12:57.323Z,5.20
2017-12-20T05:15:26.433Z,5.30
2017-12-20T05:17:54.701Z,5.30
2017-12-20T05:20:22.986Z,5.30
2017-12-20T05:22:51.254Z,5.20
2017-12-20T05:25:19.520Z,5.30
2017-12-20T05:27:47.787Z,5.20
2017-12-20T05:30:16.072Z,5.20
2017-12-20T05:32:44.337Z,5.10
2017-12-20T05:35:12.602Z,5.10
2017-12-20T05:37:40.872Z,5.10
2017-12-20T05:40:10.107Z,5.10
2017-12-20T05:42:38.398Z,5.10
2017-12-20T05:45:06.698Z,5.00
2017-12-20T05:47:35.004Z,5.00
2017-12-20T05:50:03.338Z,5.10
2017-12-20T05:52:31.659Z,5.00
2017-12-20T05:55:00.733Z,5.00
2017-12-20T05:57:29.069Z,5.00
2017-12-20T05:59:57.608Z,5.00
2017-12-20T06:02:26.667Z,5.00
2017-12-20T06:04:54.978Z,5.00
2017-12-20T06:07:23.337Z,5.00
2017-12-20T06:09:51.624Z,5.00
2017-12-20T06:12:20.710Z,5.10
2017-12-20T06:14:49.765Z,5.20
2017-12-20T06:17:18.312Z,5.20
2017-12-20T06:19:47.437Z,5.20
2017-12-20T06:22:15.731Z,5.10
2017-12-20T06:24:44.044Z,5.00
2017-12-20T06:27:12.376Z,5.00
2017-12-20T06:29:40.774Z,4.90
2017-12-20T06:32:09.088Z,5.00
2017-12-20T06:34:38.144Z,5.20
2017-12-20T06:37:06.515Z,5.20
2017-12-20T06:39:34.793Z,5.20
2017-12-20T06:42:03.158Z,5.00
2017-12-20T06:44:31.722Z,5.10
2017-12-20T06:47:02.280Z,5.10
2017-12-20T06:49:30.808Z,5.00
2017-12-20T06:51:59.525Z,5.10
2017-12-20T06:54:30.612Z,4.80
2017-12-20T06:57:02.672Z,4.80
2017-12-20T06:59:31.005Z,4.90
2017-12-20T07:01:59.550Z,4.90
2017-12-20T07:04:27.894Z,4.90
2017-12-20T07:06:56.235Z,5.00
2017-12-20T07:09:24.473Z,5.00
2017-12-20T07:11:52.798Z,5.00
2017-12-20T07:14:21.032Z,5.00
2017-12-20T07:16:49.309Z,5.00
2017-12-20T07:19:17.643Z,5.10
2017-12-20T07:21:45.917Z,5.10
2017-12-20T07:24:14.213Z,5.20
2017-12-20T07:26:42.471Z,5.10
2017-12-20T07:29:10.715Z,5.20
2017-12-20T07:31:38.987Z,5.20
2017-12-20T07:34:07.230Z,5.20
2017-12-20T07:36:35.540Z,5.30
2017-12-20T07:39:03.820Z,5.30
2017-12-20T07:41:32.065Z,5.30
2017-12-20T07:44:00.331Z,5.40
2017-12-20T07:46:28.610Z,5.40
2017-12-20T07:48:56.897Z,5.40
2017-12-20T07:51:25.208Z,5.50
2017-12-20T07:53:53.511Z,5.40
2017-12-20T07:56:21.760Z,5.40
2017-12-20T07:58:50.017Z,5.40
2017-12-20T08:01:18.380Z,5.50
2017-12-20T08:03:46.630Z,5.60
2017-12-20T08:06:14.898Z,5.60
2017-12-20T08:08:43.166Z,5.60
2017-12-20T08:11:11.450Z,5.60
2017-12-20T08:13:39.720Z,5.60
2017-12-20T08:16:07.980Z,5.60
2017-12-20T08:18:37.011Z,5.50
2017-12-20T08:21:05.255Z,5.50
2017-12-20T08:23:34.254Z,5.50
2017-12-20T08:26:03.287Z,5.60
2017-12-20T08:28:32.474Z,5.50
2017-12-20T08:31:00.747Z,5.50
2017-12-20T08:33:29.007Z,5.60
2017-12-20T08:35:58.050Z,5.60
2017-12-20T08:38:26.347Z,5.60
2017-12-20T08:40:54.619Z,5.60
2017-12-20T08:43:22.904Z,5.60
2017-12-20T08:45:51.165Z,5.60
2017-12-20T08:48:19.408Z,5.60
2017-12-20T08:50:47.688Z,5.60
2017-12-20T08:53:15.972Z,5.60
2017-12-20T08:55:44.994Z,5.60
2017-12-20T08:58:13.303Z,5.60
2017-12-20T09:00:41.805Z,5.60
2017-12-20T09:03:10.075Z,5.50
2017-12-20T09:05:38.317Z,5.60
2017-12-20T09:08:07.335Z,5.70
2017-12-20T09:10:35.600Z,5.60
2017-12-20T09:13:03.905Z,5.60
2017-12-20T09:15:32.179Z,5.60
2017-12-20T09:18:00.475Z,5.70
2017-12-20T09:20:28.756Z,5.70
2017-12-20T09:22:57.014Z,5.70
2017-12-20T09:25:25.307Z,5.70
2017-12-20T09:27:53.575Z,5.70
2017-12-20T09:30:21.823Z,5.80
2017-12-20T09:32:50.160Z,5.70
2017-12-20T09:35:18.393Z,5.70
2017-12-20T09:37:46.736Z,5.80
2017-12-20T09:40:14.983Z,5.70
2017-12-20T09:42:44.003Z,5.80
2017-12-20T09:45:12.291Z,5.80
2017-12-20T09:47:40.561Z,5.70
2017-12-20T09:50:08.812Z,5.80
2017-12-20T09:52:37.859Z,5.80
2017-12-20T09:55:06.133Z,5.80
2017-12-20T09:57:34.395Z,5.80
2017-12-20T10:00:03.528Z,5.80
2017-12-20T10:02:31.783Z,5.80
2017-12-20T10:05:00.026Z,5.80
2017-12-20T10:07:28.497Z,5.70
2017-12-20T10:09:56.764Z,5.80
2017-12-20T10:12:25.130Z,5.80
2017-12-20T10:14:53.386Z,5.80
2017-12-20T10:17:21.674Z,5.80
2017-12-20T10:19:49.975Z,5.80
2017-12-20T10:22:18.258Z,5.80
2017-12-20T10:24:47.282Z,5.70
2017-12-20T10:27:16.306Z,5.70
2017-12-20T10:29:45.327Z,5.70
2017-12-20T10:32:13.630Z,5.70
2017-12-20T10:34:41.933Z,5.80
2017-12-20T10:37:10.194Z,5.70
2017-12-20T10:39:38.522Z,5.60
2017-12-20T10:42:06.865Z,5.70
2017-12-20T10:44:35.117Z,5.70
2017-12-20T10:47:03.379Z,5.70
2017-12-20T10:49:33.134Z,5.70
2017-12-20T10:52:01.374Z,5.70
2017-12-20T10:54:30.396Z,5.70
2017-12-20T10:56:58.634Z,5.70
2017-12-20T10:59:26.903Z,5.70
2017-12-20T11:01:55.141Z,5.80
2017-12-20T11:04:23.438Z,5.80
2017-12-20T11:06:51.741Z,5.80
2017-12-20T11:09:20.034Z,5.70
2017-12-20T11:11:48.284Z,5.60
2017-12-20T11:14:16.566Z,5.60
2017-12-20T11:16:44.915Z,5.60
2017-12-20T11:19:13.240Z,5.60
2017-12-20T11:21:41.539Z,5.60
2017-12-20T11:24:09.842Z,5.60
2017-12-20T11:26:38.094Z,5.60
2017-12-20T11:29:06.363Z,5.60
2017-12-20T11:31:34.607Z,5.60
2017-12-20T11:34:03.654Z,5.60
2017-12-20T11:36:31.902Z,5.60
2017-12-20T11:39:00.203Z,5.60
2017-12-20T11:41:28.473Z,5.70
2017-12-20T11:43:56.723Z,5.60
2017-12-20T11:46:24.995Z,5.70
2017-12-20T11:48:53.235Z,5.80
2017-12-20T11:51:21.502Z,5.80
2017-12-20T11:53:50.526Z,5.60
2017-12-20T11:56:19.651Z,5.60
2017-12-20T11:58:47.951Z,5.70
2017-12-20T12:01:16.230Z,5.70
2017-12-20T12:03:44.545Z,5.60
2017-12-20T12:06:12.762Z,5.70
2017-12-20T12:08:41.091Z,5.60
2017-12-20T12:11:09.637Z,5.70
2017-12-20T12:13:37.896Z,5.70
2017-12-20T12:16:06.178Z,5.70
2017-12-20T12:18:34.590Z,5.70
2017-12-20T12:21:02.860Z,5.70
2017-12-20T12:23:31.135Z,5.70
2017-12-20T12:25:59.395Z,5.70
2017-12-20T12:28:28.439Z,5.70
2017-12-20T12:30:56.691Z,5.70
2017-12-20T12:33:24.951Z,5.70
2017-12-20T12:35:54.011Z,5.60
2017-12-20T12:38:23.471Z,5.60
2017-12-20T12:40:51.780Z,5.60
2017-12-20T12:43:20.123Z,5.70
2017-12-20T12:45:48.344Z,5.60
2017-12-20T12:48:16.625Z,5.60
2017-12-20T12:50:44.907Z,5.70
2017-12-20T12:53:13.191Z,5.70
2017-12-20T12:55:41.442Z,5.60
2017-12-20T12:58:10.565Z,5.70
2017-12-20T13:00:38.860Z,5.70
2017-12-20T13:03:07.115Z,5.80
2017-12-20T13:05:35.356Z,5.70
2017-12-20T13:08:04.211Z,5.80
2017-12-20T13:10:32.447Z,5.80
2017-12-20T13:13:01.472Z,5.80
2017-12-20T13:15:29.779Z,5.80
2017-12-20T13:17:58.038Z,5.80
2017-12-20T13:20:26.296Z,5.80
2017-12-20T13:22:55.298Z,5.90
2017-12-20T13:25:24.316Z,5.90
2017-12-20T13:27:52.628Z,5.90
2017-12-20T13:30:20.871Z,5.80
2017-12-20T13:32:49.125Z,5.80
2017-12-20T13:35:17.376Z,5.80
2017-12-20T13:37:46.835Z,5.90
2017-12-20T13:40:15.929Z,5.80
2017-12-20T13:42:44.112Z,5.80
2017-12-20T13:45:13.174Z,5.70
2017-12-20T13:47:41.530Z,5.70
2017-12-20T13:50:09.785Z,5.70
2017-12-20T13:52:38.799Z,5.80
2017-12-20T13:55:07.059Z,5.80
2017-12-20T13:57:36.064Z,5.70
2017-12-20T14:00:04.332Z,5.70
2017-12-20T14:02:33.371Z,5.70
2017-12-20T14:05:01.779Z,5.70
2017-12-20T14:07:30.042Z,5.80
2017-12-20T14:09:58.298Z,5.80
2017-12-20T14:12:26.599Z,5.80
2017-12-20T14:14:54.850Z,5.80
2017-12-20T14:17:23.103Z,5.70
2017-12-20T14:19:51.442Z,5.80
2017-12-20T14:22:19.690Z,5.80
2017-12-20T14:24:48.705Z,5.80
2017-12-20T14:27:16.960Z,5.80
2017-12-20T14:29:46.022Z,5.80
2017-12-20T14:32:14.308Z,5.80
2017-12-20T14:34:42.608Z,5.80
2017-12-20T14:37:10.851Z,5.80
2017-12-20T14:39:39.132Z,5.80
2017-12-20T14:42:07.389Z,5.70
2017-12-20T14:44:35.695Z,5.80
2017-12-20T14:47:03.966Z,5.80
2017-12-20T14:49:32.233Z,5.80
2017-12-20T14:52:00.662Z,5.90
2017-12-20T14:54:28.917Z,5.90
2017-12-20T14:56:57.174Z,5.80
2017-12-20T14:59:25.470Z,5.90
2017-12-20T15:01:53.892Z,5.90
2017-12-20T15:04:22.804Z,5.80
2017-12-20T15:06:51.054Z,5.90
2017-12-20T15:09:19.339Z,5.90
2017-12-20T15:11:47.588Z,5.80
2017-12-20T15:14:16.235Z,5.90
2017-12-20T15:16:44.454Z,5.80
2017-12-20T15:19:12.717Z,5.80
2017-12-20T15:21:41.739Z,5.80
2017-12-20T15:24:10.005Z,5.90
2017-12-20T15:26:39.024Z,5.90
2017-12-20T15:29:07.343Z,5.90
2017-12-20T15:31:35.578Z,5.90
2017-12-20T15:34:03.894Z,5.90
2017-12-20T15:36:32.198Z,5.90
2017-12-20T15:39:00.493Z,5.90
2017-12-20T15:41:29.522Z,5.90
2017-12-20T15:43:57.835Z,5.90
2017-12-20T15:46:26.130Z,5.80
2017-12-20T15:48:54.411Z,5.90
2017-12-20T15:51:22.670Z,5.90
2017-12-20T15:53:50.942Z,5.90
2017-12-20T15:56:19.179Z,5.90
2017-12-20T15:58:47.516Z,5.80
2017-12-20T16:01:15.762Z,5.80
2017-12-20T16:03:44.806Z,5.80
2017-12-20T16:06:13.080Z,5.90
2017-12-20T16:08:41.355Z,5.80
2017-12-20T16:11:09.587Z,5.80
2017-12-20T16:13:37.933Z,5.80
2017-12-20T16:16:06.237Z,5.90
2017-12-20T16:18:34.527Z,5.80
2017-12-20T16:21:02.754Z,5.80
2017-12-20T16:23:31.015Z,5.80
2017-12-20T16:26:00.059Z,5.80
2017-12-20T16:28:28.305Z,5.80
2017-12-20T16:30:56.626Z,5.80
2017-12-20T16:33:24.902Z,5.70
2017-12-20T16:35:53.140Z,5.80
2017-12-20T16:38:22.173Z,5.80
2017-12-20T16:40:50.434Z,5.80
2017-12-20T16:43:18.702Z,5.80
2017-12-20T16:45:47.706Z,5.80
2017-12-20T16:48:16.011Z,5.80
2017-12-20T16:50:44.266Z,5.80
2017-12-20T16:53:12.510Z,5.70
2017-12-20T16:55:40.802Z,5.80
2017-12-20T16:58:09.033Z,5.80
2017-12-20T17:00:37.289Z,5.70
2017-12-20T17:03:06.299Z,5.80
2017-12-20T17:05:34.598Z,5.80
2017-12-20T17:08:02.883Z,5.80
2017-12-20T17:10:31.255Z,5.80
2017-12-20T17:12:59.511Z,5.80
2017-12-20T17:15:28.533Z,5.80
2017-12-20T17:17:56.823Z,5.80
2017-12-20T17:20:25.136Z,5.80
2017-12-20T17:22:53.388Z,5.80
2017-12-20T17:25:21.676Z,5.90
2017-12-20T17:27:49.919Z,5.80
2017-12-20T17:30:18.176Z,5.80
2017-12-20T17:32:47.218Z,5.90
2017-12-20T17:35:15.479Z,5.90
2017-12-20T17:37:43.750Z,5.90
2017-12-20T17:40:12.786Z,5.90
2017-12-20T17:42:41.078Z,5.90
2017-12-20T17:45:09.336Z,5.90
2017-12-20T17:47:37.585Z,5.90
2017-12-20T17:50:05.938Z,5.90
2017-12-20T17:52:34.179Z,5.90
2017-12-20T17:55:02.435Z,5.80
2017-12-20T17:57:31.451Z,5.80
2017-12-20T17:59:59.762Z,5.80
2017-12-20T18:02:28.043Z,5.70
2017-12-20T18:04:56.325Z,5.70
2017-12-20T18:07:24.605Z,5.70
2017-12-20T18:09:52.872Z,5.70
2017-12-20T18:12:21.140Z,5.70
2017-12-20T18:14:50.372Z,5.70
2017-12-20T18:17:18.656Z,5.70
2017-12-20T18:19:46.918Z,5.70
2017-12-20T18:22:15.176Z,5.80
2017-12-20T18:24:43.454Z,5.80
2017-12-20T18:27:12.474Z,5.80
2017-12-20T18:29:40.771Z,5.80
2017-12-20T18:32:09.056Z,5.80
2017-12-20T18:34:37.351Z,5.80
2017-12-20T18:37:05.596Z,5.80
2017-12-20T18:39:33.929Z,5.70
2017-12-20T18:42:02.155Z,5.80
2017-12-20T18:44:30.433Z,5.80
2017-12-20T18:46:58.679Z,5.90
2017-12-20T18:49:27.736Z,6.00
2017-12-20T18:51:56.038Z,6.00
2017-12-20T18:54:24.306Z,5.90
2017-12-20T18:56:52.568Z,5.70
2017-12-20T18:59:20.845Z,5.80
2017-12-20T19:01:49.089Z,5.80
2017-12-20T19:04:17.427Z,5.80
2017-12-20T19:06:45.743Z,5.90
2017-12-20T19:09:14.010Z,5.90
2017-12-20T19:11:42.255Z,5.90
2017-12-20T19:14:10.557Z,5.90
2017-12-20T19:16:38.806Z,5.90
2017-12-20T19:19:07.915Z,5.90
2017-12-20T19:21:36.161Z,5.90
2017-12-20T19:24:05.194Z,5.90
2017-12-20T19:26:33.502Z,5.90
2017-12-20T19:29:01.780Z,5.90
2017-12-20T19:31:30.163Z,5.80
2017-12-20T19:33:58.406Z,5.90
2017-12-20T19:36:27.434Z,5.80
2017-12-20T19:38:55.679Z,5.80
2017-12-20T19:41:24.725Z,5.80
2017-12-20T19:43:53.005Z,5.70
2017-12-20T19:46:21.388Z,5.70
2017-12-20T19:48:49.657Z,5.70
2017-12-20T19:51:17.952Z,5.70
2017-12-20T19:53:46.190Z,5.80
2017-12-20T19:56:15.234Z,5.80
2017-12-20T19:58:43.475Z,5.80
2017-12-20T20:01:12.618Z,5.90
2017-12-20T20:03:40.863Z,5.90
2017-12-20T20:06:09.147Z,5.90
2017-12-20T20:08:37.396Z,6.00
2017-12-20T20:11:07.178Z,6.00
2017-12-20T20:13:35.432Z,6.00
2017-12-20T20:16:03.696Z,6.00
2017-12-20T20:18:32.711Z,6.00
2017-12-20T20:21:00.984Z,6.00
2017-12-20T20:23:30.007Z,6.10
2017-12-20T20:25:58.266Z,6.10
2017-12-20T20:28:26.583Z,6.00
2017-12-20T20:30:54.853Z,6.00
2017-12-20T20:33:23.102Z,6.00
2017-12-20T20:35:52.259Z,6.00
2017-12-20T20:38:20.505Z,6.00
2017-12-20T20:40:48.784Z,6.00
2017-12-20T20:43:17.045Z,5.80
2017-12-20T20:45:46.144Z,5.90
2017-12-20T20:48:15.150Z,5.90
2017-12-20T20:50:43.449Z,5.90
2017-12-20T20:53:11.752Z,5.90
2017-12-20T20:55:40.020Z,5.90
2017-12-20T20:58:08.268Z,5.80
2017-12-20T21:00:37.305Z,5.90
2017-12-20T21:03:05.554Z,5.90
2017-12-20T21:05:33.842Z,6.00
2017-12-20T21:08:02.849Z,6.00
2017-12-20T21:10:31.111Z,6.00
2017-12-20T21:13:00.481Z,6.10
2017-12-20T21:15:28.739Z,6.10
2017-12-20T21:17:56.988Z,6.10
2017-12-20T21:20:26.010Z,6.00
2017-12-20T21:22:54.271Z,6.00
2017-12-20T21:25:23.354Z,6.10
2017-12-20T21:27:51.636Z,6.10
2017-12-20T21:30:20.686Z,6.10
2017-12-20T21:32:48.939Z,6.10
2017-12-20T21:35:17.978Z,6.00
2017-12-20T21:37:46.218Z,6.00
2017-12-20T21:40:14.497Z,6.00
2017-12-20T21:42:42.801Z,6.00
2017-12-20T21:45:11.062Z,5.90
2017-12-20T21:47:39.366Z,5.90
2017-12-20T21:50:07.659Z,5.90
2017-12-20T21:52:35.917Z,5.80
2017-12-20T21:55:04.213Z,5.90
2017-12-20T21:57:32.484Z,5.90
2017-12-20T22:00:00.737Z,5.90
2017-12-20T22:02:29.767Z,5.90
2017-12-20T22:04:58.056Z,5.90
2017-12-20T22:07:26.332Z,5.90
2017-12-20T22:09:54.636Z,5.90
2017-12-20T22:12:22.905Z,5.90
2017-12-20T22:14:51.153Z,5.80
2017-12-20T22:17:19.426Z,5.90
2017-12-20T22:19:48.442Z,5.80
2017-12-20T22:22:16.734Z,5.80
2017-12-20T22:24:44.978Z,5.80
2017-12-20T22:27:14.272Z,5.80
2017-12-20T22:29:42.550Z,5.80
2017-12-20T22:32:10.784Z,5.90
2017-12-20T22:34:39.055Z,5.90
2017-12-20T22:37:07.302Z,5.90
2017-12-20T22:39:35.568Z,6.00
2017-12-20T22:42:03.824Z,5.90
2017-12-20T22:44:32.086Z,5.90
2017-12-20T22:47:00.335Z,6.00
2017-12-20T22:49:28.674Z,6.00
2017-12-20T22:51:56.918Z,6.00
2017-12-20T22:54:25.957Z,6.00
2017-12-20T22:56:54.213Z,6.00
2017-12-20T22:59:23.744Z,6.00
2017-12-20T23:01:51.997Z,6.00
2017-12-20T23:04:20.272Z,5.90
2017-12-20T23:06:49.378Z,6.00
2017-12-20T23:09:18.383Z,5.90
2017-12-20T23:11:46.655Z,5.90
2017-12-20T23:14:15.697Z,5.90
2017-12-20T23:16:43.962Z,5.90
2017-12-20T23:19:12.231Z,5.90
2017-12-20T23:21:40.505Z,5.90
2017-12-20T23:24:08.835Z,5.90
2017-12-20T23:26:37.653Z,5.80
2017-12-20T23:29:05.895Z,5.90
2017-12-20T23:31:34.165Z,5.90
2017-12-20T23:34:02.467Z,5.90
2017-12-20T23:36:30.739Z,5.80
2017-12-20T23:38:58.994Z,5.90
2017-12-20T23:41:27.250Z,5.90
2017-12-20T23:43:56.262Z,5.90
2017-12-20T23:46:25.291Z,6.00
2017-12-20T23:48:53.537Z,6.00
2017-12-20T23:51:22.575Z,6.00
2017-12-20T23:53:50.814Z,6.00
2017-12-20T23:56:19.849Z,6.10
2017-12-20T23:58:48.115Z,6.10
